createdAt,value
2023-03-03T00:00:08.301Z,61.18
2023-03-03T00:02:40.972Z,61.31
2023-03-03T00:05:08.179Z,61.37
2023-03-03T00:07:34.801Z,60.69
2023-03-03T00:10:01.442Z,60.21
2023-03-03T00:12:31.684Z,60.98
2023-03-03T00:14:58.445Z,60.90
2023-03-03T00:17:27.786Z,60.46
2023-03-03T00:19:55.392Z,60.93
2023-03-03T00:22:36.502Z,61.20
2023-03-03T00:25:21.713Z,60.91
2023-03-03T00:27:48.444Z,60.81
2023-03-03T00:30:25.478Z,60.62
2023-03-03T00:32:53.288Z,61.38
2023-03-03T00:35:35.420Z,61.04
2023-03-03T00:38:12.807Z,61.06
2023-03-03T00:40:40.816Z,61.67
2023-03-03T00:43:25.417Z,61.90
2023-03-03T00:45:54.464Z,63.07
2023-03-03T00:48:22.996Z,64.14
2023-03-03T00:50:50.906Z,63.73
2023-03-03T00:53:19.299Z,62.81
2023-03-03T00:55:47.728Z,61.41
2023-03-03T00:58:15.388Z,62.57
2023-03-03T01:00:45.036Z,62.60
2023-03-03T01:03:18.127Z,61.70
2023-03-03T01:05:45.394Z,61.38
2023-03-03T01:08:12.872Z,61.53
2023-03-03T01:10:44.068Z,61.44
2023-03-03T01:13:11.463Z,61.25
2023-03-03T01:15:39.969Z,60.85
2023-03-03T01:18:08.116Z,60.07
2023-03-03T01:20:34.841Z,61.50
2023-03-03T01:23:01.483Z,62.35
2023-03-03T01:25:28.473Z,62.45
2023-03-03T01:27:55.911Z,62.22
2023-03-03T01:30:23.330Z,61.94
2023-03-03T01:32:50.011Z,62.75
2023-03-03T01:35:17.260Z,63.23
2023-03-03T01:37:44.048Z,62.87
2023-03-03T01:40:20.582Z,63.02
2023-03-03T01:42:47.521Z,62.48
2023-03-03T01:45:26.163Z,62.24
2023-03-03T01:48:00.646Z,62.21
2023-03-03T01:50:47.691Z,61.26
2023-03-03T01:53:19.736Z,60.09
2023-03-03T01:55:47.724Z,59.10
2023-03-03T01:58:26.184Z,57.73
2023-03-03T02:01:02.486Z,56.32
2023-03-03T02:03:30.610Z,56.78
2023-03-03T02:06:03.382Z,56.01
2023-03-03T02:08:42.893Z,55.90
2023-03-03T02:11:11.004Z,55.88
2023-03-03T02:13:37.808Z,53.79
2023-03-03T02:16:04.879Z,52.88
2023-03-03T02:18:31.848Z,52.85
2023-03-03T02:21:05.577Z,52.06
2023-03-03T02:23:44.920Z,52.28
2023-03-03T02:26:24.849Z,51.91
2023-03-03T02:28:56.721Z,52.47
2023-03-03T02:31:26.400Z,53.02
2023-03-03T02:33:55.288Z,53.37
2023-03-03T02:36:28.439Z,53.39
2023-03-03T02:39:07.313Z,53.17
2023-03-03T02:41:36.998Z,53.42
2023-03-03T02:44:09.443Z,53.71
2023-03-03T02:46:39.327Z,53.15
2023-03-03T02:49:08.237Z,54.08
2023-03-03T02:51:35.875Z,53.32
2023-03-03T02:54:02.837Z,52.24
2023-03-03T02:56:33.267Z,51.94
2023-03-03T02:59:00.180Z,52.02
2023-03-03T03:01:27.630Z,52.05
2023-03-03T03:03:54.711Z,52.52
2023-03-03T03:06:22.937Z,51.37
2023-03-03T03:08:49.813Z,51.21
2023-03-03T03:11:16.563Z,50.49
2023-03-03T03:13:43.479Z,50.14
2023-03-03T03:16:10.184Z,50.13
2023-03-03T03:18:36.828Z,50.05
2023-03-03T03:21:11.849Z,50.76
2023-03-03T03:23:40.984Z,51.28
2023-03-03T03:26:08.811Z,51.08
2023-03-03T03:28:36.391Z,51.74
2023-03-03T03:31:05.570Z,51.05
2023-03-03T03:33:34.403Z,50.72
2023-03-03T03:36:01.464Z,50.44
2023-03-03T03:38:29.677Z,50.07
2023-03-03T03:40:56.524Z,49.79
2023-03-03T03:43:23.268Z,49.96
2023-03-03T03:45:50.142Z,50.32
2023-03-03T03:48:19.556Z,50.85
2023-03-03T03:50:48.920Z,51.05
2023-03-03T03:53:16.652Z,51.23
2023-03-03T03:55:44.488Z,51.18
2023-03-03T03:58:17.324Z,51.83
2023-03-03T04:00:48.966Z,52.30
2023-03-03T04:03:16.942Z,52.41
2023-03-03T04:05:45.827Z,51.72
2023-03-03T04:08:13.468Z,52.12
2023-03-03T04:10:42.281Z,52.84
2023-03-03T04:13:09.321Z,52.91
2023-03-03T04:15:36.444Z,53.09
2023-03-03T04:18:04.090Z,53.29
2023-03-03T04:20:30.977Z,53.11
2023-03-03T04:22:58.249Z,53.34
2023-03-03T04:25:25.999Z,53.95
2023-03-03T04:27:54.310Z,53.78
2023-03-03T04:30:22.695Z,53.54
2023-03-03T04:32:53.229Z,54.33
2023-03-03T04:35:22.496Z,54.99
2023-03-03T04:37:49.201Z,55.00
2023-03-03T04:40:18.228Z,54.84
2023-03-03T04:42:47.468Z,54.65
2023-03-03T04:45:14.230Z,55.20
2023-03-03T04:47:41.879Z,55.22
2023-03-03T04:50:11.051Z,55.23
2023-03-03T04:52:38.023Z,56.10
2023-03-03T04:55:09.340Z,56.56
2023-03-03T04:57:38.958Z,56.78
2023-03-03T05:00:06.694Z,56.95
2023-03-03T05:02:33.906Z,56.98
2023-03-03T05:05:01.976Z,57.07
2023-03-03T05:07:29.911Z,57.20
2023-03-03T05:09:56.516Z,57.90
2023-03-03T05:12:23.181Z,58.92
2023-03-03T05:14:49.867Z,58.72
2023-03-03T05:17:16.503Z,58.70
2023-03-03T05:19:43.208Z,60.18
2023-03-03T05:22:10.394Z,59.58
2023-03-03T05:24:37.100Z,60.17
2023-03-03T05:27:03.799Z,60.41
2023-03-03T05:29:31.569Z,59.93
2023-03-03T05:31:58.529Z,60.02
2023-03-03T05:34:25.429Z,60.44
2023-03-03T05:36:52.121Z,60.49
2023-03-03T05:39:18.892Z,61.48
2023-03-03T05:41:45.578Z,62.17
2023-03-03T05:44:12.831Z,62.05
2023-03-03T05:46:39.788Z,61.43
2023-03-03T05:49:06.486Z,61.93
2023-03-03T05:51:33.154Z,61.86
2023-03-03T05:53:59.862Z,61.80
2023-03-03T05:56:26.420Z,62.20
2023-03-03T05:58:53.148Z,61.99
2023-03-03T06:01:19.798Z,62.74
2023-03-03T06:03:46.354Z,62.71
2023-03-03T06:06:14.164Z,62.43
2023-03-03T06:08:40.864Z,62.13
2023-03-03T06:11:07.491Z,62.14
2023-03-03T06:13:34.480Z,62.14
2023-03-03T06:16:01.105Z,61.72
2023-03-03T06:18:27.662Z,61.99
2023-03-03T06:20:55.015Z,61.57
2023-03-03T06:23:22.145Z,61.83
2023-03-03T06:25:48.802Z,62.35
2023-03-03T06:28:15.393Z,62.20
2023-03-03T06:30:42.060Z,62.14
2023-03-03T06:33:08.632Z,61.89
2023-03-03T06:35:35.307Z,61.93
2023-03-03T06:38:02.799Z,62.21
2023-03-03T06:40:29.382Z,61.55
2023-03-03T06:42:56.260Z,62.03
2023-03-03T06:45:22.842Z,62.17
2023-03-03T06:47:49.606Z,62.36
2023-03-03T06:50:20.234Z,62.46
2023-03-03T06:52:47.010Z,62.50
2023-03-03T06:55:21.575Z,63.31
2023-03-03T06:57:48.329Z,63.02
2023-03-03T07:00:23.194Z,63.84
2023-03-03T07:03:00.744Z,63.07
2023-03-03T07:05:28.982Z,63.19
2023-03-03T07:07:56.748Z,62.85
2023-03-03T07:10:28.686Z,62.49
2023-03-03T07:13:14.452Z,62.44
2023-03-03T07:15:41.040Z,62.71
2023-03-03T07:18:24.643Z,62.68
2023-03-03T07:20:51.474Z,61.85
2023-03-03T07:23:25.164Z,61.74
2023-03-03T07:25:52.569Z,61.32
2023-03-03T07:28:29.736Z,60.44
2023-03-03T07:30:58.190Z,59.86
2023-03-03T07:33:34.246Z,59.92
2023-03-03T07:36:02.870Z,60.05
2023-03-03T07:38:34.487Z,59.23
2023-03-03T07:41:03.793Z,59.25
2023-03-03T07:43:43.236Z,58.64
2023-03-03T07:46:09.842Z,58.35
2023-03-03T07:48:40.093Z,57.77
2023-03-03T07:51:18.998Z,58.78
2023-03-03T07:53:47.329Z,58.33
2023-03-03T07:56:26.798Z,58.36
2023-03-03T07:58:55.985Z,58.29
2023-03-03T08:01:39.692Z,57.97
2023-03-03T08:04:17.512Z,57.64
2023-03-03T08:06:55.753Z,57.39
2023-03-03T08:09:51.872Z,58.08
2023-03-03T08:12:33.782Z,58.24
2023-03-03T08:15:36.249Z,58.42
2023-03-03T08:18:15.420Z,59.06
2023-03-03T08:20:46.163Z,59.00
2023-03-03T08:23:14.598Z,58.53
2023-03-03T08:25:42.353Z,58.53
2023-03-03T08:28:10.424Z,57.39
2023-03-03T08:30:37.153Z,57.82
2023-03-03T08:33:04.416Z,57.08
2023-03-03T08:35:31.418Z,57.00
2023-03-03T08:37:58.444Z,56.33
2023-03-03T08:40:25.411Z,57.06
2023-03-03T08:42:52.131Z,56.09
2023-03-03T08:45:18.724Z,57.15
2023-03-03T08:47:45.533Z,57.24
2023-03-03T08:50:13.251Z,56.66
2023-03-03T08:52:40.374Z,57.28
2023-03-03T08:55:08.783Z,56.84
2023-03-03T08:57:35.781Z,57.00
2023-03-03T09:00:03.072Z,57.18
2023-03-03T09:02:30.162Z,58.28
2023-03-03T09:04:56.791Z,57.56
2023-03-03T09:07:23.478Z,57.69
2023-03-03T09:09:50.499Z,56.36
2023-03-03T09:12:22.624Z,54.09
2023-03-03T09:14:51.317Z,53.61
2023-03-03T09:17:33.869Z,49.02
2023-03-03T09:20:17.535Z,46.41
2023-03-03T09:22:45.056Z,42.75
2023-03-03T09:25:22.132Z,40.73
2023-03-03T09:27:48.867Z,40.83
2023-03-03T09:30:39.501Z,40.92
2023-03-03T09:33:29.294Z,41.57
2023-03-03T09:36:22.427Z,38.54
2023-03-03T09:38:49.177Z,39.80
2023-03-03T09:41:23.994Z,39.74
2023-03-03T09:44:02.519Z,44.26
2023-03-03T09:46:44.776Z,47.49
2023-03-03T09:49:47.939Z,48.47
2023-03-03T09:52:27.303Z,49.71
2023-03-03T09:55:15.738Z,50.29
2023-03-03T09:58:12.583Z,50.21
2023-03-03T10:01:22.501Z,50.40
2023-03-03T10:04:08.273Z,50.92
2023-03-03T10:06:48.319Z,51.27
2023-03-03T10:09:43.165Z,51.43
2023-03-03T10:12:30.959Z,50.55
2023-03-03T10:15:30.365Z,50.84
2023-03-03T10:18:19.724Z,51.26
2023-03-03T10:21:12.340Z,51.53
2023-03-03T10:24:12.783Z,52.06
2023-03-03T10:27:12.327Z,51.73
2023-03-03T10:30:04.629Z,51.23
2023-03-03T10:32:45.578Z,52.30
2023-03-03T10:35:22.539Z,51.94
2023-03-03T10:38:12.085Z,52.10
2023-03-03T10:40:57.086Z,52.03
2023-03-03T10:43:33.041Z,51.19
2023-03-03T10:46:28.013Z,51.80
2023-03-03T10:49:20.802Z,50.52
2023-03-03T10:51:50.443Z,50.20
2023-03-03T10:54:54.464Z,49.96
2023-03-03T10:57:27.157Z,49.39
2023-03-03T11:00:32.728Z,49.14
2023-03-03T11:03:36.603Z,49.97
2023-03-03T11:06:11.270Z,49.09
2023-03-03T11:09:14.078Z,48.64
2023-03-03T11:12:10.200Z,49.40
2023-03-03T11:14:47.863Z,48.30
2023-03-03T11:17:46.992Z,49.00
2023-03-03T11:20:51.192Z,49.22
2023-03-03T11:23:44.719Z,48.43
2023-03-03T11:26:13.992Z,48.66
2023-03-03T11:29:10.296Z,49.59
2023-03-03T11:31:48.236Z,49.28
2023-03-03T11:34:47.130Z,50.48
2023-03-03T11:37:19.048Z,52.79
2023-03-03T11:39:45.785Z,50.49
2023-03-03T11:42:18.235Z,51.13
2023-03-03T11:44:55.072Z,54.22
2023-03-03T11:47:41.995Z,53.30
2023-03-03T11:50:16.357Z,49.63
2023-03-03T11:52:55.780Z,50.43
2023-03-03T11:55:39.391Z,49.83
2023-03-03T11:58:20.380Z,50.01
2023-03-03T12:00:52.389Z,50.60
2023-03-03T12:03:25.093Z,50.03
2023-03-03T12:06:13.305Z,51.74
2023-03-03T12:08:58.271Z,50.05
2023-03-03T12:11:54.412Z,49.82
2023-03-03T12:14:42.589Z,50.05
2023-03-03T12:17:21.223Z,51.12
2023-03-03T12:20:18.052Z,49.00
2023-03-03T12:23:07.285Z,48.88
2023-03-03T12:25:42.949Z,54.34
2023-03-03T12:28:36.310Z,46.96
2023-03-03T12:31:32.222Z,49.43
2023-03-03T12:34:11.901Z,47.46
2023-03-03T12:37:05.267Z,48.14
2023-03-03T12:39:56.672Z,48.91
2023-03-03T12:42:38.629Z,47.76
2023-03-03T12:45:24.314Z,47.19
2023-03-03T12:48:00.292Z,47.24
2023-03-03T12:50:47.311Z,48.68
2023-03-03T12:53:37.914Z,48.68
2023-03-03T12:56:10.462Z,49.15
2023-03-03T12:59:14.491Z,52.46
2023-03-03T13:02:08.456Z,50.87
2023-03-03T13:04:38.522Z,50.82
2023-03-03T13:07:31.499Z,52.38
2023-03-03T13:10:17.069Z,48.11
2023-03-03T13:13:11.944Z,47.60
2023-03-03T13:15:58.394Z,48.92
2023-03-03T13:18:49.832Z,48.67
2023-03-03T13:21:22.764Z,48.60
2023-03-03T13:24:05.110Z,48.91
2023-03-03T13:26:37.624Z,49.17
2023-03-03T13:29:15.387Z,48.37
2023-03-03T13:32:14.577Z,49.06
2023-03-03T13:35:09.151Z,48.69
2023-03-03T13:37:43.460Z,49.00
2023-03-03T13:40:13.464Z,48.37
2023-03-03T13:42:46.337Z,49.22
2023-03-03T13:45:31.317Z,47.99
2023-03-03T13:48:28.543Z,49.18
2023-03-03T13:51:10.470Z,47.89
2023-03-03T13:53:45.429Z,47.13
2023-03-03T13:56:33.319Z,47.27
2023-03-03T13:59:18.602Z,47.50
2023-03-03T14:02:22.210Z,47.12
2023-03-03T14:04:54.566Z,46.70
2023-03-03T14:07:44.966Z,46.44
2023-03-03T14:10:31.507Z,45.98
2023-03-03T14:13:24.744Z,45.69
2023-03-03T14:15:57.708Z,46.07
2023-03-03T14:18:44.811Z,46.20
2023-03-03T14:21:18.975Z,44.82
2023-03-03T14:24:02.453Z,45.08
2023-03-03T14:26:29.281Z,45.33
2023-03-03T14:29:20.349Z,43.99
2023-03-03T14:31:47.763Z,44.11
2023-03-03T14:34:29.419Z,43.61
2023-03-03T14:37:23.016Z,43.96
2023-03-03T14:40:15.042Z,43.91
2023-03-03T14:42:53.770Z,42.67
2023-03-03T14:45:33.651Z,42.77
2023-03-03T14:48:11.608Z,43.74
2023-03-03T14:50:41.597Z,42.55
2023-03-03T14:53:19.988Z,43.10
2023-03-03T14:55:52.884Z,42.89
2023-03-03T14:58:26.847Z,41.93
2023-03-03T15:01:18.666Z,41.77
2023-03-03T15:03:49.244Z,41.72
2023-03-03T15:06:32.949Z,41.69
2023-03-03T15:09:20.672Z,41.55
2023-03-03T15:11:51.556Z,42.04
2023-03-03T15:14:24.631Z,41.04
2023-03-03T15:16:51.416Z,40.76
2023-03-03T15:19:37.107Z,40.99
2023-03-03T15:22:29.133Z,41.13
2023-03-03T15:25:10.959Z,41.25
2023-03-03T15:27:43.870Z,40.40
2023-03-03T15:30:15.502Z,40.63
2023-03-03T15:32:56.543Z,41.28
2023-03-03T15:35:52.992Z,43.37
2023-03-03T15:38:31.103Z,43.34
2023-03-03T15:41:19.236Z,42.71
2023-03-03T15:44:10.450Z,43.26
2023-03-03T15:46:44.123Z,43.59
2023-03-03T15:49:55.364Z,44.09
2023-03-03T15:52:45.384Z,43.62
2023-03-03T15:55:32.549Z,44.60
2023-03-03T15:58:23.879Z,43.98
2023-03-03T16:01:10.571Z,44.97
2023-03-03T16:03:46.443Z,44.29
2023-03-03T16:06:22.133Z,43.89
2023-03-03T16:09:10.012Z,44.25
2023-03-03T16:11:54.332Z,44.31
2023-03-03T16:14:36.350Z,44.70
2023-03-03T16:17:28.256Z,44.85
2023-03-03T16:20:10.191Z,44.03
2023-03-03T16:22:49.778Z,44.60
2023-03-03T16:25:36.818Z,44.14
2023-03-03T16:28:18.014Z,43.97
2023-03-03T16:30:54.955Z,43.34
2023-03-03T16:33:37.722Z,43.38
2023-03-03T16:36:28.545Z,43.70
2023-03-03T16:39:25.932Z,42.56
2023-03-03T16:42:08.582Z,42.69
2023-03-03T16:44:43.604Z,42.41
2023-03-03T16:47:24.061Z,43.34
2023-03-03T16:50:06.233Z,43.85
2023-03-03T16:52:40.756Z,43.66
2023-03-03T16:55:46.997Z,44.17
2023-03-03T16:58:31.717Z,44.38
2023-03-03T17:01:07.214Z,44.82
2023-03-03T17:03:46.194Z,45.62
2023-03-03T17:06:27.770Z,45.52
2023-03-03T17:09:32.076Z,45.45
2023-03-03T17:12:32.477Z,46.02
2023-03-03T17:15:14.918Z,46.59
2023-03-03T17:17:56.930Z,46.19
2023-03-03T17:20:32.365Z,46.02
2023-03-03T17:23:36.388Z,46.17
2023-03-03T17:26:23.430Z,46.50
2023-03-03T17:29:21.634Z,46.00
2023-03-03T17:32:27.276Z,46.24
2023-03-03T17:35:27.005Z,46.83
2023-03-03T17:38:05.678Z,46.76
2023-03-03T17:40:49.336Z,46.73
2023-03-03T17:43:39.753Z,46.61
2023-03-03T17:46:16.907Z,46.44
2023-03-03T17:49:06.741Z,45.99
2023-03-03T17:51:51.325Z,45.96
2023-03-03T17:54:32.957Z,46.09
2023-03-03T17:57:17.398Z,45.33
2023-03-03T17:59:58.730Z,45.30
2023-03-03T18:03:03.118Z,45.58
2023-03-03T18:06:00.107Z,45.34
2023-03-03T18:08:37.250Z,44.91
2023-03-03T18:11:29.301Z,45.30
2023-03-03T18:14:22.000Z,45.08
2023-03-03T18:17:10.104Z,45.59
2023-03-03T18:20:05.008Z,45.57
2023-03-03T18:22:41.095Z,45.87
2023-03-03T18:25:22.421Z,46.04
2023-03-03T18:28:01.123Z,45.87
2023-03-03T18:30:32.892Z,46.21
2023-03-03T18:33:07.033Z,45.35
2023-03-03T18:35:38.230Z,46.27
2023-03-03T18:38:16.916Z,46.52
2023-03-03T18:41:03.995Z,47.29
2023-03-03T18:43:45.469Z,47.30
2023-03-03T18:46:22.632Z,47.33
2023-03-03T18:48:53.332Z,47.07
2023-03-03T18:51:35.464Z,48.68
2023-03-03T18:54:16.172Z,47.41
2023-03-03T18:56:58.249Z,48.76
2023-03-03T18:59:31.141Z,48.11
2023-03-03T19:02:13.252Z,47.90
2023-03-03T19:05:06.509Z,48.78
2023-03-03T19:07:42.146Z,48.41
2023-03-03T19:10:21.368Z,48.87
2023-03-03T19:12:52.056Z,48.42
2023-03-03T19:15:31.197Z,49.89
2023-03-03T19:18:03.646Z,49.85
2023-03-03T19:20:40.946Z,49.69
2023-03-03T19:23:17.102Z,50.59
2023-03-03T19:25:44.199Z,50.63
2023-03-03T19:28:38.052Z,50.49
2023-03-03T19:31:21.669Z,50.47
2023-03-03T19:33:57.142Z,50.09
2023-03-03T19:36:39.694Z,50.55
2023-03-03T19:39:52.367Z,50.76
2023-03-03T19:42:39.970Z,50.76
2023-03-03T19:45:24.669Z,51.34
2023-03-03T19:48:01.185Z,51.82
2023-03-03T19:51:07.821Z,51.77
2023-03-03T19:53:43.337Z,51.38
2023-03-03T19:56:42.564Z,51.75
2023-03-03T19:59:31.177Z,51.76
2023-03-03T20:02:16.520Z,52.81
2023-03-03T20:04:59.638Z,53.04
2023-03-03T20:07:33.879Z,52.61
2023-03-03T20:10:15.783Z,52.94
2023-03-03T20:13:00.194Z,52.62
2023-03-03T20:15:36.684Z,53.05
2023-03-03T20:18:28.141Z,53.08
2023-03-03T20:21:28.230Z,53.21
2023-03-03T20:24:25.144Z,54.19
2023-03-03T20:27:18.518Z,53.55
2023-03-03T20:30:02.561Z,54.06
2023-03-03T20:32:44.470Z,54.78
2023-03-03T20:35:21.039Z,53.68
2023-03-03T20:37:54.504Z,54.31
2023-03-03T20:40:45.400Z,54.49
2023-03-03T20:43:38.324Z,54.31
2023-03-03T20:46:29.469Z,55.42
2023-03-03T20:49:14.627Z,54.63
2023-03-03T20:51:43.771Z,55.33
2023-03-03T20:54:22.554Z,55.36
2023-03-03T20:57:01.369Z,55.91
2023-03-03T20:59:44.621Z,56.60
2023-03-03T21:02:23.933Z,57.36
2023-03-03T21:05:08.079Z,56.92
2023-03-03T21:07:36.559Z,57.63
2023-03-03T21:10:36.260Z,57.53
2023-03-03T21:13:30.925Z,59.00
2023-03-03T21:16:06.128Z,58.55
2023-03-03T21:18:32.856Z,59.58
2023-03-03T21:20:59.581Z,59.15
2023-03-03T21:23:26.273Z,58.59
2023-03-03T21:25:55.245Z,58.99
2023-03-03T21:28:31.313Z,58.90
2023-03-03T21:31:17.188Z,58.69
2023-03-03T21:33:55.704Z,59.04
2023-03-03T21:36:45.031Z,59.38
2023-03-03T21:39:20.761Z,59.62
2023-03-03T21:41:55.475Z,60.27
2023-03-03T21:44:29.745Z,60.40
2023-03-03T21:46:58.593Z,60.65
2023-03-03T21:49:26.111Z,61.79
2023-03-03T21:51:53.239Z,63.31
2023-03-03T21:54:19.883Z,63.35
2023-03-03T21:56:48.007Z,63.06
2023-03-03T21:59:14.882Z,63.70
2023-03-03T22:01:41.807Z,63.34
2023-03-03T22:04:09.717Z,63.24
2023-03-03T22:06:39.926Z,63.36
2023-03-03T22:09:07.214Z,63.26
2023-03-03T22:11:34.191Z,63.81
2023-03-03T22:14:01.158Z,63.55
2023-03-03T22:16:28.051Z,64.80
2023-03-03T22:18:54.769Z,63.93
2023-03-03T22:21:21.912Z,63.79
2023-03-03T22:23:48.660Z,63.87
2023-03-03T22:26:15.571Z,64.10
2023-03-03T22:28:44.249Z,64.84
2023-03-03T22:31:11.209Z,64.83
2023-03-03T22:33:37.917Z,64.63
2023-03-03T22:36:11.883Z,64.85
2023-03-03T22:38:39.962Z,64.96
2023-03-03T22:41:07.662Z,64.24
2023-03-03T22:43:34.664Z,65.31
2023-03-03T22:46:01.551Z,64.48
2023-03-03T22:48:29.389Z,64.80
2023-03-03T22:50:56.680Z,64.42
2023-03-03T22:53:24.860Z,64.51
2023-03-03T22:55:52.184Z,64.87
2023-03-03T22:58:26.736Z,64.76
2023-03-03T23:00:54.157Z,64.86
2023-03-03T23:03:22.587Z,65.08
2023-03-03T23:05:51.654Z,65.22
2023-03-03T23:08:20.444Z,65.08
2023-03-03T23:10:48.521Z,65.81
2023-03-03T23:13:15.523Z,65.59
2023-03-03T23:15:42.716Z,65.85
2023-03-03T23:18:09.991Z,65.79
2023-03-03T23:20:37.205Z,66.07
2023-03-03T23:23:03.858Z,66.23
2023-03-03T23:25:30.582Z,67.10
2023-03-03T23:27:57.571Z,66.42
2023-03-03T23:30:24.327Z,66.69
2023-03-03T23:32:51.734Z,66.54
2023-03-03T23:35:19.106Z,66.55
2023-03-03T23:37:46.089Z,66.85
2023-03-03T23:40:15.160Z,67.13
2023-03-03T23:42:42.293Z,67.35
2023-03-03T23:45:10.537Z,67.78
2023-03-03T23:47:37.378Z,67.34
2023-03-03T23:50:04.827Z,67.46
2023-03-03T23:52:31.689Z,67.32
2023-03-03T23:54:58.454Z,67.35
2023-03-03T23:57:25.222Z,67.74
2023-03-03T23:59:51.858Z,67.61
